Walton on the Naze, United Kingdom
Current Conditions -  °F | °C
As of 10:50 AM on Sunday 21 Dec 2014 (Local Time) from EGUW Reporting Station
Broken Clouds Broken Clouds  
Wind Chill: 37°   Ceiling: 3300
Heat Index: 45°   Visibility: 6mi
Dew Point: 43°   Wind: 16mph
Humidity: 93%   Direction: 220°SW
Pressure: 30.27"   Gusts: NA
Location:  51.85°N, 1.27°E
Report Text: EGUW 211050Z AUTO 22014KT 9999 SCT007/// BKN033/// 07/06 Q1025
Loading
Personal Weather Stations






























Interactive Weather Map New forecast layout! Learn more

10-Day Weather Forecast

Advertisements
Track Severe Weather on mobile